Time;durP1;ratioP1;P1;durP2;ratioP2;P2;SDS_P1;SDS_P2;PMS_P1;PMS_P2;Temp;Humidity;BMP_temperature;BMP_pressure;BME280_temperature;BME280_humidity;BME280_pressure;Samples;Min_cycle;Max_cycle;Signal;HPM_P1;HPM_P2
2022/10/28 00:00:49;;;;;;;0.90;0.80;;;;;;;;;;5008740;28;20058;-65
2022/10/28 00:03:15;;;;;;;1.58;0.95;;;;;;;;;;4991357;28;20056;-65
2022/10/28 00:05:41;;;;;;;1.45;1.25;;;;;;;;;;5008250;28;20054;-65
2022/10/28 00:08:07;;;;;;;1.95;0.93;;;;;;;;;;5010749;28;20049;-65
2022/10/28 00:10:33;;;;;;;0.55;0.55;;;;;;;;;;4991831;28;20115;-65
2022/10/28 00:12:59;;;;;;;1.15;1.05;;;;;;;;;;5005284;28;20042;-65
2022/10/28 00:15:25;;;;;;;1.98;1.35;;;;;;;;;;5009942;28;20080;-65
2022/10/28 00:17:52;;;;;;;1.30;1.20;;;;;;;;;;5008122;28;20112;-65
2022/10/28 00:20:19;;;;;;;1.08;1.00;;;;;;;;;;4996039;28;20060;-65
2022/10/28 00:22:45;;;;;;;1.10;0.90;;;;;;;;;;4992871;28;20577;-65
2022/10/28 00:25:11;;;;;;;3.20;1.30;;;;;;;;;;5013519;28;20045;-65
2022/10/28 00:27:37;;;;;;;1.55;1.42;;;;;;;;;;5012630;28;20076;-65
2022/10/28 00:30:03;;;;;;;1.50;1.10;;;;;;;;;;4997398;28;20064;-65
2022/10/28 00:32:29;;;;;;;1.48;1.38;;;;;;;;;;5012635;28;20620;-65
2022/10/28 00:34:55;;;;;;;1.17;1.08;;;;;;;;;;4995951;28;20057;-65
2022/10/28 00:37:22;;;;;;;1.48;1.25;;;;;;;;;;4995188;28;20038;-65
2022/10/28 00:39:48;;;;;;;1.80;1.25;;;;;;;;;;5011537;28;20060;-65
2022/10/28 00:42:17;;;;;;;2.05;1.75;;;;;;;;;;4999208;28;20049;-65
2022/10/28 00:44:49;;;;;;;1.75;1.50;;;;;;;;;;4996052;28;20125;-65
2022/10/28 00:47:34;;;;;;;3.42;1.80;;;;;;;;;;5013362;28;20128;-65
2022/10/28 00:50:06;;;;;;;3.13;2.83;;;;;;;;;;5016720;28;20038;-65
2022/10/28 00:52:32;;;;;;;2.22;1.88;;;;;;;;;;5011684;28;20045;-65
2022/10/28 00:55:00;;;;;;;6.18;3.72;;;;;;;;;;5012206;28;20099;-65
2022/10/28 00:57:28;;;;;;;3.13;2.67;;;;;;;;;;4996933;28;20049;-65
2022/10/28 00:59:54;;;;;;;3.28;2.97;;;;;;;;;;5015683;28;20140;-65
2022/10/28 01:02:21;;;;;;;2.75;2.45;;;;;;;;;;5011804;28;20038;-65
2022/10/28 01:04:47;;;;;;;3.35;2.55;;;;;;;;;;4996374;28;20037;-65
2022/10/28 01:07:14;;;;;;;2.08;1.90;;;;;;;;;;4998520;28;20183;-65
2022/10/28 01:09:40;;;;;;;1.70;1.42;;;;;;;;;;5014298;28;20044;-65
2022/10/28 01:12:18;;;;;;;2.97;1.70;;;;;;;;;;4997303;28;20057;-65
2022/10/28 01:14:53;;;;;;;1.48;1.38;;;;;;;;;;4995948;28;20611;-65
2022/10/28 01:17:25;;;;;;;1.08;1.05;;;;;;;;;;5015727;28;20941;-65
2022/10/28 01:20:11;;;;;;;2.20;1.38;;;;;;;;;;5011419;28;20458;-65
2022/10/28 01:22:56;;;;;;;1.20;1.10;;;;;;;;;;4993865;28;20125;-65
2022/10/28 01:25:41;;;;;;;1.23;1.00;;;;;;;;;;4993681;28;20080;-65
2022/10/28 01:28:25;;;;;;;0.88;0.88;;;;;;;;;;5011930;28;20100;-65
2022/10/28 01:31:10;;;;;;;1.25;1.17;;;;;;;;;;5011665;28;20067;-65
2022/10/28 01:33:39;;;;;;;1.08;0.98;;;;;;;;;;5011523;28;20049;-65
2022/10/28 01:36:10;;;;;;;1.10;1.00;;;;;;;;;;4995975;28;20042;-65
2022/10/28 01:38:45;;;;;;;0.98;0.90;;;;;;;;;;4995313;28;20493;-65
2022/10/28 01:41:11;;;;;;;0.70;0.70;;;;;;;;;;4995971;28;20143;-65
2022/10/28 01:43:46;;;;;;;0.98;0.93;;;;;;;;;;4992668;28;20042;-65
2022/10/28 01:46:15;;;;;;;1.08;1.00;;;;;;;;;;5012304;28;20085;-65
2022/10/28 01:48:46;;;;;;;0.60;0.60;;;;;;;;;;5013417;28;20042;-65
2022/10/28 01:51:27;;;;;;;0.70;0.70;;;;;;;;;;4993513;28;20066;-65
2022/10/28 01:53:55;;;;;;;1.10;0.80;;;;;;;;;;5012618;28;20497;-65
2022/10/28 01:56:24;;;;;;;0.70;0.70;;;;;;;;;;5016191;28;20370;-65
2022/10/28 01:58:50;;;;;;;0.52;0.52;;;;;;;;;;5012940;28;20064;-65
2022/10/28 02:01:17;;;;;;;0.50;0.50;;;;;;;;;;4996313;28;20049;-65
2022/10/28 02:03:45;;;;;;;0.68;0.68;;;;;;;;;;5012142;28;20054;-65
2022/10/28 02:06:15;;;;;;;0.80;0.80;;;;;;;;;;5010578;28;20048;-65
2022/10/28 02:09:00;;;;;;;0.98;0.90;;;;;;;;;;4992381;28;20061;-65
2022/10/28 02:11:37;;;;;;;0.80;0.80;;;;;;;;;;5009723;28;20049;-65
2022/10/28 02:14:06;;;;;;;1.00;0.90;;;;;;;;;;5011621;28;20522;-65
2022/10/28 02:16:35;;;;;;;0.77;0.77;;;;;;;;;;5009271;28;20058;-65
2022/10/28 02:19:04;;;;;;;0.80;0.80;;;;;;;;;;4992534;28;20069;-65
2022/10/28 02:21:33;;;;;;;0.75;0.75;;;;;;;;;;5010577;28;20049;-65
2022/10/28 02:24:04;;;;;;;2.15;1.50;;;;;;;;;;4999820;28;20540;-65
2022/10/28 02:26:38;;;;;;;2.10;1.20;;;;;;;;;;5010583;28;20046;-65
2022/10/28 02:29:10;;;;;;;1.67;1.20;;;;;;;;;;5013548;28;20128;-65
2022/10/28 02:31:42;;;;;;;1.30;1.20;;;;;;;;;;4989489;28;20058;-65
2022/10/28 02:34:17;;;;;;;1.02;1.00;;;;;;;;;;5014679;28;20400;-65
2022/10/28 02:36:44;;;;;;;1.30;1.10;;;;;;;;;;5007698;28;20125;-65
2022/10/28 02:39:10;;;;;;;1.00;0.90;;;;;;;;;;4993234;28;20038;-65
2022/10/28 02:41:43;;;;;;;1.15;1.05;;;;;;;;;;4992698;28;20046;-65
2022/10/28 02:44:11;;;;;;;0.90;0.90;;;;;;;;;;5013703;28;20048;-65
2022/10/28 02:46:38;;;;;;;1.42;1.33;;;;;;;;;;4995736;28;20404;-65
2022/10/28 02:49:07;;;;;;;2.17;1.33;;;;;;;;;;4991796;28;20050;-65
2022/10/28 02:51:54;;;;;;;1.38;1.25;;;;;;;;;;5013182;28;20053;-65
2022/10/28 02:54:29;;;;;;;1.40;1.30;;;;;;;;;;4990475;28;20100;-65
2022/10/28 02:57:01;;;;;;;1.30;1.20;;;;;;;;;;4995399;28;20085;-65
2022/10/28 02:59:28;;;;;;;0.95;0.93;;;;;;;;;;4994897;28;20577;-64
2022/10/28 03:01:54;;;;;;;1.10;1.00;;;;;;;;;;4993239;28;20404;-65
2022/10/28 03:04:20;;;;;;;1.00;0.90;;;;;;;;;;5014053;28;20053;-65
2022/10/28 03:06:46;;;;;;;0.77;0.77;;;;;;;;;;5010824;28;20107;-64
2022/10/28 03:09:12;;;;;;;1.52;1.08;;;;;;;;;;5012867;28;20048;-65
2022/10/28 03:11:38;;;;;;;3.40;1.10;;;;;;;;;;5011510;28;20092;-65
2022/10/28 03:14:04;;;;;;;1.60;1.42;;;;;;;;;;5010880;28;20073;-65
2022/10/28 03:16:30;;;;;;;2.05;1.48;;;;;;;;;;5009643;28;20057;-64
2022/10/28 03:18:56;;;;;;;2.05;1.40;;;;;;;;;;4993246;28;20770;-65
2022/10/28 03:21:22;;;;;;;1.20;1.10;;;;;;;;;;5014425;28;20444;-65
2022/10/28 03:23:48;;;;;;;2.38;1.45;;;;;;;;;;5008985;28;20115;-65
2022/10/28 03:26:14;;;;;;;1.52;1.42;;;;;;;;;;5017866;28;20125;-65
2022/10/28 03:28:40;;;;;;;1.23;1.15;;;;;;;;;;4994891;28;20047;-65
2022/10/28 03:31:06;;;;;;;1.60;1.40;;;;;;;;;;4993267;28;20061;-64
2022/10/28 03:33:32;;;;;;;1.00;1.00;;;;;;;;;;4996817;28;20566;-65
2022/10/28 03:35:58;;;;;;;1.98;1.30;;;;;;;;;;4994296;28;20038;-65
2022/10/28 03:38:24;;;;;;;2.95;1.92;;;;;;;;;;5012236;28;20493;-65
2022/10/28 03:40:50;;;;;;;1.50;1.40;;;;;;;;;;4992948;28;20041;-65
2022/10/28 03:43:17;;;;;;;1.23;1.10;;;;;;;;;;4996438;28;20144;-65
2022/10/28 03:45:43;;;;;;;1.40;1.30;;;;;;;;;;5008499;28;20540;-65
2022/10/28 03:48:09;;;;;;;1.80;1.23;;;;;;;;;;5011885;28;20045;-65
2022/10/28 03:50:35;;;;;;;2.00;1.77;;;;;;;;;;5009555;28;20099;-65
2022/10/28 03:53:01;;;;;;;3.92;1.80;;;;;;;;;;5009231;28;20137;-65
2022/10/28 03:55:27;;;;;;;1.60;1.50;;;;;;;;;;4999002;28;20124;-65
2022/10/28 03:57:53;;;;;;;1.58;1.48;;;;;;;;;;5001485;28;20069;-64
2022/10/28 04:00:19;;;;;;;1.73;1.63;;;;;;;;;;5012831;28;20096;-65
2022/10/28 04:02:49;;;;;;;1.55;1.45;;;;;;;;;;4997229;28;20404;-65
2022/10/28 04:05:16;;;;;;;1.67;1.40;;;;;;;;;;4993424;28;20503;-65
2022/10/28 04:07:42;;;;;;;1.95;1.55;;;;;;;;;;4998371;28;20060;-65
2022/10/28 04:10:08;;;;;;;1.30;1.20;;;;;;;;;;5016792;28;20078;-64
2022/10/28 04:12:34;;;;;;;2.15;1.50;;;;;;;;;;5016146;28;20444;-65
2022/10/28 04:15:00;;;;;;;1.25;1.17;;;;;;;;;;4996188;28;20112;-65
2022/10/28 04:17:26;;;;;;;1.30;1.20;;;;;;;;;;5015385;28;20061;-64
2022/10/28 04:19:52;;;;;;;1.40;1.30;;;;;;;;;;5012362;28;20038;-64
2022/10/28 04:22:18;;;;;;;1.27;1.17;;;;;;;;;;4996963;28;20057;-65
2022/10/28 04:24:44;;;;;;;1.73;1.13;;;;;;;;;;5014871;28;20044;-65
2022/10/28 04:27:10;;;;;;;1.95;1.58;;;;;;;;;;4994392;28;20056;-64
2022/10/28 04:29:36;;;;;;;1.42;1.33;;;;;;;;;;5015047;28;20045;-64
2022/10/28 04:32:02;;;;;;;2.20;1.40;;;;;;;;;;4998273;28;20403;-64
2022/10/28 04:34:28;;;;;;;2.85;1.80;;;;;;;;;;4999644;28;20053;-65
2022/10/28 04:36:54;;;;;;;1.42;1.33;;;;;;;;;;5016397;28;20141;-65
2022/10/28 04:39:20;;;;;;;1.65;1.52;;;;;;;;;;4994091;28;20401;-65
2022/10/28 04:41:46;;;;;;;2.35;1.90;;;;;;;;;;4990904;28;20106;-65
2022/10/28 04:44:12;;;;;;;2.08;1.60;;;;;;;;;;5015981;28;20041;-64
2022/10/28 04:46:38;;;;;;;1.27;1.17;;;;;;;;;;5008206;28;20048;-64
2022/10/28 04:49:04;;;;;;;2.22;1.85;;;;;;;;;;5013473;28;20050;-64
2022/10/28 04:51:30;;;;;;;1.25;1.13;;;;;;;;;;5013720;28;20041;-65
2022/10/28 04:53:56;;;;;;;1.90;1.80;;;;;;;;;;4996033;28;20432;-64
2022/10/28 04:56:22;;;;;;;1.42;1.30;;;;;;;;;;5015579;28;20045;-65
2022/10/28 04:58:48;;;;;;;4.93;2.13;;;;;;;;;;4998311;28;20057;-65
2022/10/28 05:01:14;;;;;;;1.95;1.85;;;;;;;;;;4990909;28;20077;-65
2022/10/28 05:03:40;;;;;;;2.55;2.08;;;;;;;;;;5018623;28;20546;-65
2022/10/28 05:06:06;;;;;;;1.60;1.50;;;;;;;;;;5013618;28;20041;-64
2022/10/28 05:08:32;;;;;;;3.42;1.58;;;;;;;;;;5010709;28;20566;-64
2022/10/28 05:10:58;;;;;;;1.77;1.60;;;;;;;;;;5013875;28;20042;-64
2022/10/28 05:13:24;;;;;;;1.70;1.60;;;;;;;;;;5009140;28;20037;-65
2022/10/28 05:15:50;;;;;;;2.17;2.00;;;;;;;;;;4994579;28;20089;-65
2022/10/28 05:18:16;;;;;;;1.73;1.63;;;;;;;;;;5011289;28;20132;-65
2022/10/28 05:20:43;;;;;;;2.05;1.85;;;;;;;;;;4994108;28;20119;-65
2022/10/28 05:23:09;;;;;;;2.83;2.03;;;;;;;;;;4995394;28;20045;-64
2022/10/28 05:25:35;;;;;;;2.35;2.15;;;;;;;;;;5014702;28;20053;-65
2022/10/28 05:28:01;;;;;;;2.55;2.30;;;;;;;;;;5011606;28;20449;-65
2022/10/28 05:30:27;;;;;;;4.10;2.42;;;;;;;;;;5000619;28;20431;-65
2022/10/28 05:33:03;;;;;;;3.00;2.55;;;;;;;;;;5008343;28;20504;-65
2022/10/28 05:35:32;;;;;;;1.92;1.83;;;;;;;;;;4992205;28;20045;-65
2022/10/28 05:37:58;;;;;;;2.60;2.40;;;;;;;;;;4995547;28;20048;-65
2022/10/28 05:40:24;;;;;;;2.80;2.60;;;;;;;;;;5015022;28;20134;-65
2022/10/28 05:42:50;;;;;;;2.95;2.65;;;;;;;;;;4995177;28;20471;-65
2022/10/28 05:45:16;;;;;;;2.78;2.50;;;;;;;;;;5011422;28;20416;-65
2022/10/28 05:47:43;;;;;;;3.40;3.10;;;;;;;;;;5004583;28;20034;-65
2022/10/28 05:50:09;;;;;;;3.75;3.35;;;;;;;;;;4997357;28;20048;-64
2022/10/28 05:52:35;;;;;;;3.75;2.72;;;;;;;;;;5013005;28;20034;-64
2022/10/28 05:55:01;;;;;;;3.47;3.15;;;;;;;;;;4995238;28;20087;-65
2022/10/28 05:57:27;;;;;;;3.30;3.00;;;;;;;;;;4989609;28;20057;-64
2022/10/28 05:59:53;;;;;;;3.55;3.25;;;;;;;;;;5012345;28;20140;-64
2022/10/28 06:02:19;;;;;;;3.80;3.35;;;;;;;;;;4987537;28;20042;-65
2022/10/28 06:04:45;;;;;;;4.85;3.97;;;;;;;;;;5006789;28;20128;-64
2022/10/28 06:07:11;;;;;;;6.65;3.83;;;;;;;;;;4995263;28;20045;-64
2022/10/28 06:09:37;;;;;;;4.20;3.78;;;;;;;;;;5012231;28;20045;-64
2022/10/28 06:12:05;;;;;;;4.70;3.58;;;;;;;;;;4994045;28;20407;-65
2022/10/28 06:14:31;;;;;;;4.28;3.88;;;;;;;;;;4989797;28;20053;-65
2022/10/28 06:16:57;;;;;;;4.88;4.35;;;;;;;;;;4995079;28;20061;-65
2022/10/28 06:19:23;;;;;;;3.13;2.83;;;;;;;;;;4996292;28;20107;-65
2022/10/28 06:21:49;;;;;;;4.95;3.88;;;;;;;;;;5008056;28;20053;-65
2022/10/28 06:24:15;;;;;;;3.88;3.20;;;;;;;;;;4988913;28;20045;-66
2022/10/28 06:26:41;;;;;;;2.85;2.65;;;;;;;;;;5011613;28;20101;-64
2022/10/28 06:29:09;;;;;;;2.80;2.40;;;;;;;;;;5015182;28;20049;-64
2022/10/28 06:31:38;;;;;;;2.53;2.28;;;;;;;;;;5004675;28;20042;-67
2022/10/28 06:34:04;;;;;;;2.25;2.05;;;;;;;;;;4997621;28;20050;-63
2022/10/28 06:36:30;;;;;;;2.80;2.55;;;;;;;;;;4991721;28;20048;-67
2022/10/28 06:38:56;;;;;;;2.92;2.60;;;;;;;;;;4997109;28;20144;-62
2022/10/28 06:41:22;;;;;;;3.08;2.88;;;;;;;;;;4997786;28;20180;-64
2022/10/28 06:43:48;;;;;;;2.72;2.53;;;;;;;;;;4988654;28;20092;-62
2022/10/28 06:46:14;;;;;;;2.60;2.40;;;;;;;;;;4984956;28;20435;-63
2022/10/28 06:48:40;;;;;;;2.53;2.33;;;;;;;;;;5004589;28;20038;-63
2022/10/28 06:51:06;;;;;;;4.53;2.05;;;;;;;;;;5018732;28;20053;-63
2022/10/28 06:53:32;;;;;;;2.67;2.35;;;;;;;;;;5001542;28;20400;-63
2022/10/28 06:55:58;;;;;;;3.00;2.70;;;;;;;;;;4991541;28;20187;-63
2022/10/28 06:58:25;;;;;;;2.67;2.30;;;;;;;;;;5009531;28;20041;-63
2022/10/28 07:00:51;;;;;;;3.35;2.10;;;;;;;;;;5008764;28;20177;-62
2022/10/28 07:03:17;;;;;;;2.65;2.45;;;;;;;;;;4987475;28;20675;-63
2022/10/28 07:05:44;;;;;;;2.47;2.28;;;;;;;;;;4987282;28;20049;-63
2022/10/28 07:08:10;;;;;;;2.63;2.42;;;;;;;;;;5015205;28;20033;-63
2022/10/28 07:10:36;;;;;;;2.90;2.63;;;;;;;;;;5018550;28;20085;-63
2022/10/28 07:13:02;;;;;;;2.25;2.05;;;;;;;;;;4983950;28;20081;-62
2022/10/28 07:15:28;;;;;;;2.80;2.60;;;;;;;;;;4979365;28;20469;-63
2022/10/28 07:17:55;;;;;;;2.85;2.65;;;;;;;;;;4996576;28;20148;-62
2022/10/28 07:20:21;;;;;;;3.38;1.90;;;;;;;;;;4994344;28;20382;-63
2022/10/28 07:22:47;;;;;;;3.95;2.38;;;;;;;;;;4987398;28;20176;-62
2022/10/28 07:25:13;;;;;;;2.78;2.20;;;;;;;;;;4991805;28;20045;-63
2022/10/28 07:27:39;;;;;;;3.05;2.53;;;;;;;;;;5004385;28;20034;-63
2022/10/28 07:30:05;;;;;;;2.25;2.13;;;;;;;;;;5009430;28;20053;-62
2022/10/28 07:32:31;;;;;;;2.88;2.35;;;;;;;;;;5009406;28;20057;-62
2022/10/28 07:34:58;;;;;;;2.22;2.03;;;;;;;;;;5006518;28;20038;-62
2022/10/28 07:37:23;;;;;;;3.22;2.65;;;;;;;;;;4989159;28;20057;-62
2022/10/28 07:39:49;;;;;;;4.70;3.42;;;;;;;;;;4989469;28;20728;-62
2022/10/28 07:42:15;;;;;;;3.15;2.88;;;;;;;;;;5005442;28;20081;-62
2022/10/28 07:44:41;;;;;;;3.53;2.80;;;;;;;;;;4991377;28;20460;-63
2022/10/28 07:47:07;;;;;;;3.20;2.80;;;;;;;;;;4986713;28;20045;-63
2022/10/28 07:49:33;;;;;;;5.75;3.47;;;;;;;;;;4974864;28;20101;-62
2022/10/28 07:51:59;;;;;;;5.22;4.20;;;;;;;;;;4995573;28;20046;-63
2022/10/28 07:54:25;;;;;;;5.85;3.80;;;;;;;;;;5002550;28;20677;-63
2022/10/28 07:56:51;;;;;;;5.88;3.33;;;;;;;;;;5003724;28;20058;-63
2022/10/28 07:59:19;;;;;;;4.30;2.97;;;;;;;;;;5009035;28;20045;-62
2022/10/28 08:01:45;;;;;;;3.67;2.78;;;;;;;;;;4997358;28;20046;-63
2022/10/28 08:04:11;;;;;;;5.25;3.35;;;;;;;;;;4995568;28;20034;-62
2022/10/28 08:06:37;;;;;;;5.28;3.58;;;;;;;;;;4999850;28;20121;-63
2022/10/28 08:09:03;;;;;;;5.00;4.30;;;;;;;;;;4978229;28;20137;-63
2022/10/28 08:11:29;;;;;;;5.15;3.40;;;;;;;;;;4994877;28;20034;-63
2022/10/28 08:13:56;;;;;;;7.55;4.38;;;;;;;;;;4985726;28;20049;-63
2022/10/28 08:16:22;;;;;;;6.95;5.05;;;;;;;;;;4978227;28;20141;-63
2022/10/28 08:18:48;;;;;;;5.40;3.60;;;;;;;;;;4985933;28;20707;-63
2022/10/28 08:21:14;;;;;;;4.20;3.53;;;;;;;;;;4983709;28;20129;-62
2022/10/28 08:23:45;;;;;;;14.30;4.57;;;;;;;;;;4988562;28;20536;-63
2022/10/28 08:26:11;;;;;;;4.60;4.15;;;;;;;;;;5005177;28;20073;-62
2022/10/28 08:28:37;;;;;;;6.78;4.88;;;;;;;;;;4983230;28;20069;-63
2022/10/28 08:31:07;;;;;;;5.93;3.22;;;;;;;;;;4996733;28;20462;-63
2022/10/28 08:33:33;;;;;;;6.18;3.42;;;;;;;;;;5015066;28;20124;-62
2022/10/28 08:35:59;;;;;;;4.25;3.85;;;;;;;;;;4995949;28;20142;-63
2022/10/28 08:38:25;;;;;;;6.35;3.92;;;;;;;;;;5009272;28;20042;-63
2022/10/28 08:40:51;;;;;;;5.72;3.97;;;;;;;;;;5008437;28;20074;-64
2022/10/28 08:43:26;;;;;;;5.95;4.35;;;;;;;;;;4990480;28;20053;-63
2022/10/28 08:46:08;;;;;;;6.07;4.45;;;;;;;;;;5007237;28;20085;-63
2022/10/28 08:48:35;;;;;;;6.72;4.75;;;;;;;;;;5008389;28;20097;-64
2022/10/28 08:51:18;;;;;;;6.25;4.00;;;;;;;;;;4991925;28;20064;-63
2022/10/28 08:53:47;;;;;;;9.75;5.32;;;;;;;;;;4991231;28;20567;-63
2022/10/28 08:56:15;;;;;;;5.35;3.78;;;;;;;;;;4990343;28;20496;-63
2022/10/28 08:58:43;;;;;;;7.68;4.85;;;;;;;;;;4989445;28;20057;-63
2022/10/28 09:01:16;;;;;;;9.38;5.05;;;;;;;;;;4991457;28;20057;-63
2022/10/28 09:03:43;;;;;;;12.32;6.05;;;;;;;;;;4990909;28;20046;-63
2022/10/28 09:06:10;;;;;;;9.57;5.15;;;;;;;;;;4990519;28;20060;-64
2022/10/28 09:08:37;;;;;;;7.90;4.53;;;;;;;;;;5002026;28;20054;-62
2022/10/28 09:11:18;;;;;;;6.88;4.43;;;;;;;;;;4995201;28;20050;-63
2022/10/28 09:13:53;;;;;;;6.55;4.55;;;;;;;;;;4980069;28;20046;-64
2022/10/28 09:16:37;;;;;;;9.50;4.75;;;;;;;;;;4996293;28;20058;-63
2022/10/28 09:19:24;;;;;;;10.75;4.78;;;;;;;;;;5000119;28;20405;-63
2022/10/28 09:22:03;;;;;;;5.47;3.80;;;;;;;;;;4990992;28;20211;-63
2022/10/28 09:24:38;;;;;;;8.23;4.80;;;;;;;;;;4990913;28;20062;-63
2022/10/28 09:27:04;;;;;;;5.03;3.90;;;;;;;;;;4990300;28;20542;-64
2022/10/28 09:29:36;;;;;;;8.57;4.32;;;;;;;;;;5003862;28;20038;-63
2022/10/28 09:32:22;;;;;;;7.43;4.13;;;;;;;;;;5003225;28;20161;-63
2022/10/28 09:34:51;;;;;;;8.95;4.40;;;;;;;;;;5006247;28;20057;-64
2022/10/28 09:37:26;;;;;;;7.82;4.35;;;;;;;;;;4990023;28;20061;-64
2022/10/28 09:39:55;;;;;;;6.88;4.93;;;;;;;;;;4985924;28;20092;-63
2022/10/28 09:42:30;;;;;;;6.57;4.72;;;;;;;;;;4985713;28;20092;-63
2022/10/28 09:45:01;;;;;;;4.72;3.75;;;;;;;;;;5006776;28;20120;-64
2022/10/28 09:47:31;;;;;;;4.50;3.30;;;;;;;;;;4988560;28;20045;-63
2022/10/28 09:50:00;;;;;;;7.93;3.55;;;;;;;;;;4974747;28;20433;-64
2022/10/28 09:52:28;;;;;;;6.47;4.20;;;;;;;;;;4994425;28;20037;-63
2022/10/28 09:54:55;;;;;;;4.05;3.30;;;;;;;;;;4980730;28;20041;-62
2022/10/28 09:57:23;;;;;;;5.60;3.05;;;;;;;;;;5004473;28;20045;-62
2022/10/28 09:59:49;;;;;;;8.40;4.68;;;;;;;;;;4998404;28;20050;-63
2022/10/28 10:02:26;;;;;;;7.20;4.13;;;;;;;;;;4989935;28;20045;-63
2022/10/28 10:04:52;;;;;;;5.68;3.35;;;;;;;;;;4978740;28;20046;-63
2022/10/28 10:07:25;;;;;;;5.95;3.22;;;;;;;;;;4994582;28;20064;-63
2022/10/28 10:09:51;;;;;;;5.70;3.88;;;;;;;;;;4978179;28;20077;-63
2022/10/28 10:12:17;;;;;;;6.43;3.78;;;;;;;;;;5006082;28;20153;-63
2022/10/28 10:14:46;;;;;;;4.53;3.42;;;;;;;;;;4981805;28;20092;-64
2022/10/28 10:17:15;;;;;;;3.83;2.72;;;;;;;;;;4999633;28;20508;-64
2022/10/28 10:20:00;;;;;;;8.50;3.30;;;;;;;;;;4996768;28;20497;-64
2022/10/28 10:22:34;;;;;;;4.15;2.60;;;;;;;;;;4982864;28;20231;-64
2022/10/28 10:25:00;;;;;;;6.00;3.50;;;;;;;;;;4979681;28;20600;-64
2022/10/28 10:27:27;;;;;;;9.00;4.47;;;;;;;;;;4982768;28;20073;-64
2022/10/28 10:29:53;;;;;;;6.53;3.88;;;;;;;;;;4976467;28;20034;-64
2022/10/28 10:32:25;;;;;;;7.82;3.97;;;;;;;;;;4977486;28;20547;-64
2022/10/28 10:34:54;;;;;;;7.10;3.33;;;;;;;;;;4976524;28;20536;-63
2022/10/28 10:37:21;;;;;;;4.50;3.15;;;;;;;;;;4998488;28;20085;-64
2022/10/28 10:39:58;;;;;;;8.30;3.92;;;;;;;;;;4980010;28;20065;-64
2022/10/28 10:42:26;;;;;;;6.55;3.45;;;;;;;;;;4982421;28;20042;-64
2022/10/28 10:44:59;;;;;;;6.60;3.20;;;;;;;;;;4981280;28;20050;-63
2022/10/28 10:47:25;;;;;;;7.20;4.22;;;;;;;;;;4983792;28;20081;-64
2022/10/28 10:49:51;;;;;;;3.88;2.95;;;;;;;;;;4981977;28;20092;-63
2022/10/28 10:52:18;;;;;;;5.50;3.35;;;;;;;;;;5004522;28;20489;-64
2022/10/28 10:55:17;;;;;;;6.80;3.72;;;;;;;;;;5005636;28;20091;-64
2022/10/28 10:57:45;;;;;;;4.85;3.78;;;;;;;;;;4950249;28;20058;-64
2022/10/28 11:00:15;;;;;;;5.60;3.30;;;;;;;;;;4984227;28;20700;-64
2022/10/28 11:02:45;;;;;;;9.07;3.45;;;;;;;;;;4979708;28;20034;-63
2022/10/28 11:05:11;;;;;;;7.25;4.10;;;;;;;;;;4998303;28;20042;-64
2022/10/28 11:07:39;;;;;;;6.28;3.47;;;;;;;;;;4996598;28;20052;-63
2022/10/28 11:10:06;;;;;;;6.35;3.70;;;;;;;;;;4996628;28;20436;-63
2022/10/28 11:12:34;;;;;;;8.02;4.20;;;;;;;;;;4974659;28;20545;-65
2022/10/28 11:15:15;;;;;;;10.45;4.47;;;;;;;;;;4997832;28;20049;-71
2022/10/28 11:17:53;;;;;;;7.38;4.53;;;;;;;;;;4995722;28;20034;-63
2022/10/28 11:20:31;;;;;;;7.07;3.75;;;;;;;;;;4968563;28;20432;-64
2022/10/28 11:23:03;;;;;;;7.38;4.15;;;;;;;;;;4970554;28;20100;-64
2022/10/28 11:25:34;;;;;;;6.05;3.35;;;;;;;;;;4994775;28;20041;-64
2022/10/28 11:28:00;;;;;;;6.32;3.65;;;;;;;;;;4978628;28;20059;-64
2022/10/28 11:30:35;;;;;;;9.38;3.90;;;;;;;;;;4979583;28;20046;-64
2022/10/28 11:33:10;;;;;;;5.53;3.45;;;;;;;;;;4993984;28;20038;-64
2022/10/28 11:35:47;;;;;;;5.32;3.78;;;;;;;;;;4998444;28;20109;-62
2022/10/28 11:38:31;;;;;;;4.85;3.58;;;;;;;;;;4983142;28;20065;-63
2022/10/28 11:41:16;;;;;;;8.23;4.13;;;;;;;;;;4984036;28;20124;-62
2022/10/28 11:43:48;;;;;;;4.80;3.05;;;;;;;;;;4995643;28;20039;-63
2022/10/28 11:46:14;;;;;;;;;;;;;;;;;;4996240;28;20516;-62
2022/10/28 11:48:52;;;;;;;8.82;3.92;;;;;;;;;;4994485;28;19925;-63
2022/10/28 11:51:23;;;;;;;5.20;3.63;;;;;;;;;;4995981;28;20046;-62
2022/10/28 11:53:49;;;;;;;8.03;3.73;;;;;;;;;;4991226;28;20050;-62
2022/10/28 11:56:28;;;;;;;7.60;3.92;;;;;;;;;;4977277;28;20042;-62
2022/10/28 11:58:54;;;;;;;5.10;3.20;;;;;;;;;;4981639;28;20141;-62
2022/10/28 12:01:36;;;;;;;4.18;3.03;;;;;;;;;;4980766;28;20129;-63
2022/10/28 12:04:21;;;;;;;3.07;2.40;;;;;;;;;;4980298;28;20546;-63
2022/10/28 12:07:09;;;;;;;4.03;2.17;;;;;;;;;;4982884;28;20137;-63
2022/10/28 12:10:05;;;;;;;5.10;3.03;;;;;;;;;;4983991;28;20125;-63
2022/10/28 12:12:43;;;;;;;2.75;2.55;;;;;;;;;;4960633;28;20049;-63
2022/10/28 12:15:16;;;;;;;8.95;2.67;;;;;;;;;;5003817;28;20034;-63
2022/10/28 12:17:46;;;;;;;5.38;3.28;;;;;;;;;;4990652;28;20050;-63
2022/10/28 12:20:24;;;;;;;4.70;3.28;;;;;;;;;;5007313;28;20049;-63
2022/10/28 12:23:05;;;;;;;5.45;2.88;;;;;;;;;;5001714;28;20053;-63
2022/10/28 12:25:33;;;;;;;3.20;2.88;;;;;;;;;;4986119;28;20049;-63
2022/10/28 12:28:02;;;;;;;4.90;2.80;;;;;;;;;;4983605;28;20052;-63
2022/10/28 12:30:32;;;;;;;6.72;3.40;;;;;;;;;;4986642;28;20042;-63
2022/10/28 12:33:06;;;;;;;2.83;2.50;;;;;;;;;;5004058;28;20048;-63
2022/10/28 12:35:37;;;;;;;6.93;2.97;;;;;;;;;;5002604;28;20378;-63
2022/10/28 12:38:27;;;;;;;4.95;2.72;;;;;;;;;;5005587;28;20354;-63
2022/10/28 12:40:59;;;;;;;5.68;3.45;;;;;;;;;;4987428;28;20046;-63
2022/10/28 12:43:28;;;;;;;7.28;3.30;;;;;;;;;;5006755;28;20046;-63
2022/10/28 12:45:55;;;;;;;3.63;2.38;;;;;;;;;;4999707;28;20467;-63
2022/10/28 12:48:38;;;;;;;8.63;4.07;;;;;;;;;;5002006;28;20085;-63
2022/10/28 12:51:11;;;;;;;8.07;3.80;;;;;;;;;;5005864;28;20395;-63
2022/10/28 12:53:41;;;;;;;5.95;3.45;;;;;;;;;;4986838;28;20144;-63
2022/10/28 12:56:10;;;;;;;6.55;4.18;;;;;;;;;;4984632;28;20049;-63
2022/10/28 12:58:55;;;;;;;7.40;3.55;;;;;;;;;;4980356;28;20046;-63
2022/10/28 13:01:23;;;;;;;6.38;3.67;;;;;;;;;;4975142;28;20046;-63
2022/10/28 13:03:50;;;;;;;9.30;3.75;;;;;;;;;;4987454;28;20145;-63
2022/10/28 13:06:19;;;;;;;6.15;3.65;;;;;;;;;;4982930;28;20050;-63
2022/10/28 13:08:45;;;;;;;7.60;3.17;;;;;;;;;;5003190;28;20407;-63
2022/10/28 13:11:20;;;;;;;6.13;3.40;;;;;;;;;;4984450;28;20057;-63
2022/10/28 13:13:52;;;;;;;6.38;3.10;;;;;;;;;;4982416;28;20144;-63
2022/10/28 13:16:18;;;;;;;;;;;;;;;;;;4989416;28;20095;-63
2022/10/28 13:18:54;;;;;;;7.72;3.97;;;;;;;;;;4989326;28;20563;-63
2022/10/28 13:21:32;;;;;;;10.75;4.30;;;;;;;;;;4985253;28;20049;-63
2022/10/28 13:24:13;;;;;;;8.60;3.72;;;;;;;;;;5006746;28;20480;-63
2022/10/28 13:26:41;;;;;;;7.75;4.05;;;;;;;;;;4987574;28;20455;-63
2022/10/28 13:29:17;;;;;;;6.00;3.75;;;;;;;;;;4988410;28;20057;-63
2022/10/28 13:31:47;;;;;;;5.43;3.50;;;;;;;;;;5004735;28;20045;-63
2022/10/28 13:34:14;;;;;;;7.38;4.07;;;;;;;;;;4989014;28;20049;-63
2022/10/28 13:36:41;;;;;;;8.07;4.50;;;;;;;;;;5006518;28;20041;-63
2022/10/28 13:39:26;;;;;;;10.50;4.85;;;;;;;;;;4989004;28;20074;-63
2022/10/28 13:42:11;;;;;;;7.10;4.90;;;;;;;;;;4984459;28;20057;-63
2022/10/28 13:44:47;;;;;;;7.60;4.10;;;;;;;;;;5007582;28;20496;-63
2022/10/28 13:47:14;;;;;;;14.00;5.15;;;;;;;;;;4978928;28;20096;-63
2022/10/28 13:49:59;;;;;;;9.90;5.00;;;;;;;;;;4984365;28;20038;-63
2022/10/28 13:52:25;;;;;;;8.98;4.78;;;;;;;;;;5002526;28;20041;-63
2022/10/28 13:54:53;;;;;;;7.78;4.85;;;;;;;;;;4997550;28;20052;-62
2022/10/28 13:57:28;;;;;;;14.02;5.13;;;;;;;;;;5004053;28;20069;-63
2022/10/28 13:59:56;;;;;;;8.98;5.38;;;;;;;;;;4998702;28;20042;-63
2022/10/28 14:02:24;;;;;;;10.10;4.63;;;;;;;;;;4998547;28;20092;-63
2022/10/28 14:05:09;;;;;;;10.27;4.55;;;;;;;;;;4987326;28;20076;-62
2022/10/28 14:07:37;;;;;;;9.00;4.78;;;;;;;;;;4996306;28;20042;-63
2022/10/28 14:10:13;;;;;;;10.18;4.85;;;;;;;;;;4992535;28;20046;-63
2022/10/28 14:12:56;;;;;;;12.35;5.13;;;;;;;;;;4992076;28;20556;-63
2022/10/28 14:15:27;;;;;;;15.13;5.07;;;;;;;;;;4990831;28;20081;-64
2022/10/28 14:17:59;;;;;;;14.30;5.22;;;;;;;;;;4982416;28;20124;-62
2022/10/28 14:20:25;;;;;;;;;;;;;;;;;;4999078;28;20050;-63
2022/10/28 14:22:53;;;;;;;12.90;5.47;;;;;;;;;;5001223;28;20400;-63
2022/10/28 14:25:37;;;;;;;9.77;4.90;;;;;;;;;;5004087;28;20127;-62
2022/10/28 14:28:23;;;;;;;10.52;4.68;;;;;;;;;;5003299;28;20080;-63
2022/10/28 14:31:13;;;;;;;12.02;5.32;;;;;;;;;;4983129;28;20034;-63
2022/10/28 14:33:45;;;;;;;6.55;4.43;;;;;;;;;;4983620;28;20049;-63
2022/10/28 14:36:17;;;;;;;8.57;4.50;;;;;;;;;;5002453;28;20046;-63
2022/10/28 14:39:01;;;;;;;8.73;4.93;;;;;;;;;;5003560;28;20041;-63
2022/10/28 14:41:33;;;;;;;10.38;5.60;;;;;;;;;;5005450;28;20041;-63
2022/10/28 14:44:02;;;;;;;12.05;5.13;;;;;;;;;;5015241;28;20051;-62
2022/10/28 14:46:40;;;;;;;13.10;5.65;;;;;;;;;;5007772;28;20093;-63
2022/10/28 14:49:24;;;;;;;20.05;6.05;;;;;;;;;;4986620;28;20157;-63
2022/10/28 14:51:51;;;;;;;11.30;5.13;;;;;;;;;;4992150;28;20038;-64
2022/10/28 14:54:22;;;;;;;10.00;5.22;;;;;;;;;;5005303;28;20050;-63
2022/10/28 14:56:48;;;;;;;11.30;5.73;;;;;;;;;;4988267;28;20046;-63
2022/10/28 14:59:20;;;;;;;9.40;5.00;;;;;;;;;;5005018;28;20083;-63